Pagrindinis puslapis
METAR-TAF:

METAR-TAF

Oro uostai :

Naksas, Graikija

platuma: 37-04-47N, ilguma: 025-22-01E, Aukštis: 3 m

Dabartinis oras

Ataskaita buvo paskelbta 6 valandos ir 44 minutes, ne 13:50 UTC
Vėjas 4 kt iš Šiaurės
Temperatūra 17°C
Drėgmė 59%
Slėgis 1019 hPa
Matomumas 10 km arba daugiau
Mažai debesys ne aukštis 2000 ft

METAR: LGNX 151350Z 01004KT 9999 FEW020 17/09 Q1019

Laikas: 22:34 (20:34 UTC)


TAF: trūkstamas

Orai ataskaitas ir orų prognozės (METAR, TAF).

turimą stotys yra geltonos ir raudonos taškus žemėlapyje.

Perkelti pele per norėdami pamatyti stoties vardą.

Tada spustelėkite, norėdami matyti oro stebėjimo ir prognozės.

Norėdami pakeisti žemėlapį: spustelėkite ant žalios mygtukų su juodo kryžiaus žemyn,; žalią mygtuką su brūkšneliu, jei norite nutolinti; arba žalių rodyklių gretimoms žemėlapius.


METAR-TAF: